Time;durP1;ratioP1;P1;durP2;ratioP2;P2;SDS_P1;SDS_P2;PMS_P1;PMS_P2;Temp;Humidity;BMP_temperature;BMP_pressure;BME280_temperature;BME280_humidity;BME280_pressure;Samples;Min_cycle;Max_cycle;Signal;HPM_P1;HPM_P2
2022/09/05 00:00:01;;;;;;;;;;;18.90;88.60;;;;;;6093841;23;19969;-79
2022/09/05 00:02:31;;;;;;;;;;;18.90;88.30;;;;;;6093323;23;19917;-80
2022/09/05 00:05:14;;;;;;;;;;;18.90;88.10;;;;;;6094049;23;19918;-80
2022/09/05 00:07:46;;;;;;;;;;;18.90;87.40;;;;;;6093289;23;19968;-79
2022/09/05 00:10:41;;;;;;;;;;;18.90;86.60;;;;;;6096091;23;20335;-79
2022/09/05 00:13:34;;;;;;;;;;;19.00;85.90;;;;;;6095594;23;19923;-79
2022/09/05 00:16:04;;;;;;;;;;;19.00;85.30;;;;;;6097231;23;19983;-79
2022/09/05 00:18:31;;;;;;;;;;;18.90;85.20;;;;;;6095527;23;20243;-79
2022/09/05 00:21:29;;;;;;;;;;;18.90;85.60;;;;;;6095086;23;19948;-79
2022/09/05 00:24:27;;;;;;;;;;;18.90;86.00;;;;;;6095140;23;19945;-79
2022/09/05 00:27:29;;;;;;;;;;;18.80;87.20;;;;;;6096392;23;19949;-79
2022/09/05 00:30:01;;;;;;;;;;;18.80;87.30;;;;;;6095525;23;19917;-79
2022/09/05 00:33:06;;;;;;;;;;;18.70;87.00;;;;;;6095130;23;19945;-80
2022/09/05 00:36:00;;;;;;;;;;;18.70;86.60;;;;;;6096461;23;19929;-80
2022/09/05 00:38:28;;;;;;;;;;;18.70;86.10;;;;;;6095156;23;20361;-80
2022/09/05 00:41:07;;;;;;;;;;;18.80;85.10;;;;;;6095930;23;19921;-80
2022/09/05 00:43:42;;;;;;;;;;;18.90;84.00;;;;;;6094754;23;19924;-79
2022/09/05 00:46:09;;;;;;;;;;;19.00;82.70;;;;;;6095707;23;19968;-79
2022/09/05 00:48:42;;;;;;;;;;;19.20;81.50;;;;;;6094734;23;20296;-79
2022/09/05 00:51:15;;;;;;;;;;;19.30;80.70;;;;;;6100272;23;19916;-78
2022/09/05 00:53:50;;;;;;;;;;;19.40;80.10;;;;;;6100187;23;19971;-80
2022/09/05 00:56:36;;;;;;;;;;;19.50;80.50;;;;;;6100503;23;19916;-79
2022/09/05 00:59:05;;;;;;;;;;;19.60;78.80;;;;;;6100046;23;19980;-79
2022/09/05 01:01:37;;;;;;;;;;;19.70;78.20;;;;;;6100252;23;19921;-80
2022/09/05 01:04:04;;;;;;;;;;;19.70;77.90;;;;;;6099789;23;20235;-79
2022/09/05 01:06:46;;;;;;;;;;;19.80;77.50;;;;;;6100364;23;19924;-79
2022/09/05 01:09:16;;;;;;;;;;;19.80;77.10;;;;;;6099856;23;19917;-79
2022/09/05 01:11:49;;;;;;;;;;;19.90;76.60;;;;;;6100329;23;19927;-79
2022/09/05 01:14:16;;;;;;;;;;;20.00;76.40;;;;;;6099810;23;19940;-79
2022/09/05 01:17:01;;;;;;;;;;;20.00;75.90;;;;;;6100271;23;19920;-78
2022/09/05 01:19:43;;;;;;;;;;;20.10;75.80;;;;;;6099529;23;19921;-79
2022/09/05 01:22:28;;;;;;;;;;;20.10;75.20;;;;;;6099521;23;20330;-80
2022/09/05 01:25:13;;;;;;;;;;;20.20;75.10;;;;;;6100183;23;19959;-79
2022/09/05 01:27:49;;;;;;;;;;;20.20;74.80;;;;;;6125094;23;19940;-80
2022/09/05 01:30:40;;;;;;;;;;;20.20;74.60;;;;;;6103434;23;19924;-78
2022/09/05 01:33:18;;;;;;;;;;;20.30;74.20;;;;;;6100348;23;19924;-81
2022/09/05 01:35:53;;;;;;;;;;;20.40;74.00;;;;;;6099473;23;19924;-79
2022/09/05 01:38:47;;;;;;;;;;;20.40;73.90;;;;;;6101634;23;19917;-79
2022/09/05 01:41:53;;;;;;;;;;;20.40;73.80;;;;;;6103266;23;19991;-80
2022/09/05 01:44:42;;;;;;;;;;;20.50;73.70;;;;;;6099696;23;19917;-79
2022/09/05 01:47:15;;;;;;;;;;;20.60;73.60;;;;;;6098972;23;20331;-79
2022/09/05 01:50:35;;;;;;;;;;;20.60;73.50;;;;;;6102254;23;19920;-80
2022/09/05 01:53:13;;;;;;;;;;;20.60;73.70;;;;;;6035553;23;19945;-80
2022/09/05 01:55:58;;;;;;;;;;;20.70;73.10;;;;;;6036307;23;20355;-81
2022/09/05 01:58:47;;;;;;;;;;;20.70;72.20;;;;;;6076826;23;19921;-79
2022/09/05 02:01:23;;;;;;;;;;;20.80;71.80;;;;;;6099153;23;20246;-80
2022/09/05 02:04:16;;;;;;;;;;;20.80;72.10;;;;;;6102070;23;19924;-79
2022/09/05 02:07:02;;;;;;;;;;;20.90;71.70;;;;;;6099116;23;19916;-79
2022/09/05 02:09:58;;;;;;;;;;;20.90;71.80;;;;;;6103262;23;19920;-79
2022/09/05 02:12:53;;;;;;;;;;;20.90;71.30;;;;;;6100557;23;19917;-79
2022/09/05 02:15:48;;;;;;;;;;;20.90;71.20;;;;;;6100665;23;19936;-79
2022/09/05 02:18:40;;;;;;;;;;;20.90;71.00;;;;;;6063972;23;20008;-78
2022/09/05 02:21:10;;;;;;;;;;;21.00;71.10;;;;;;6124241;23;19948;-79
2022/09/05 02:23:40;;;;;;;;;;;21.00;71.40;;;;;;6098787;23;19924;-80
2022/09/05 02:26:16;;;;;;;;;;;21.00;71.90;;;;;;6099995;23;19963;-81
2022/09/05 02:28:50;;;;;;;;;;;21.00;72.40;;;;;;6098846;23;19972;-79
2022/09/05 02:31:23;;;;;;;;;;;20.90;73.10;;;;;;6099687;23;19948;-79
2022/09/05 02:34:10;;;;;;;;;;;20.90;73.50;;;;;;6099372;23;19995;-79
2022/09/05 02:36:45;;;;;;;;;;;20.80;74.80;;;;;;6098469;23;19921;-80
2022/09/05 02:39:19;;;;;;;;;;;20.80;76.10;;;;;;6099514;23;19920;-79
2022/09/05 02:42:06;;;;;;;;;;;20.70;78.10;;;;;;6103057;23;20286;-80
2022/09/05 02:45:11;;;;;;;;;;;20.60;79.20;;;;;;6103123;23;20382;-79
2022/09/05 02:48:07;;;;;;;;;;;20.50;78.50;;;;;;6102097;23;20236;-80
2022/09/05 02:50:55;;;;;;;;;;;20.40;78.70;;;;;;6101179;23;20238;-81
2022/09/05 02:53:53;;;;;;;;;;;20.40;78.80;;;;;;6102810;23;19995;-79
2022/09/05 02:56:47;;;;;;;;;;;20.30;79.10;;;;;;6102385;23;19917;-79
2022/09/05 02:59:56;;;;;;;;;;;20.30;79.60;;;;;;6102531;23;19945;-80
2022/09/05 03:02:22;;;;;;;;;;;20.30;80.60;;;;;;6098802;23;19917;-79
2022/09/05 03:04:55;;;;;;;;;;;20.20;80.60;;;;;;6100164;23;19917;-79
2022/09/05 03:07:33;;;;;;;;;;;20.20;80.30;;;;;;6100195;23;20334;-79
2022/09/05 03:10:15;;;;;;;;;;;20.20;80.30;;;;;;6099508;23;19916;-79
2022/09/05 03:13:00;;;;;;;;;;;20.30;80.40;;;;;;6098228;23;19936;-79
2022/09/05 03:15:30;;;;;;;;;;;20.20;80.80;;;;;;6098769;23;19916;-80
2022/09/05 03:18:15;;;;;;;;;;;20.20;81.20;;;;;;6099030;23;19946;-80
2022/09/05 03:20:52;;;;;;;;;;;20.30;81.70;;;;;;6099630;23;20332;-79
2022/09/05 03:23:22;;;;;;;;;;;20.20;81.40;;;;;;6099340;23;19958;-79
2022/09/05 03:25:55;;;;;;;;;;;20.30;81.30;;;;;;6098556;23;19940;-79
2022/09/05 03:28:40;;;;;;;;;;;20.30;81.20;;;;;;6124841;23;19920;-79
2022/09/05 03:31:25;;;;;;;;;;;20.30;80.50;;;;;;6098868;23;19916;-79
2022/09/05 03:34:15;;;;;;;;;;;20.30;79.80;;;;;;6098464;23;19924;-81
2022/09/05 03:36:57;;;;;;;;;;;20.30;79.60;;;;;;6098080;23;19916;-80
2022/09/05 03:39:24;;;;;;;;;;;20.40;79.00;;;;;;6098561;23;19917;-79
2022/09/05 03:41:54;;;;;;;;;;;20.40;78.40;;;;;;6099530;23;20436;-80
2022/09/05 03:44:34;;;;;;;;;;;20.40;78.10;;;;;;6099621;23;19920;-79
2022/09/05 03:47:12;;;;;;;;;;;20.40;78.00;;;;;;6100279;23;19921;-80
2022/09/05 03:49:45;;;;;;;;;;;20.40;78.10;;;;;;6101048;23;19941;-80
2022/09/05 03:52:40;;;;;;;;;;;20.50;78.20;;;;;;6104973;23;20231;-80
2022/09/05 03:55:27;;;;;;;;;;;20.50;77.80;;;;;;6104653;23;19992;-79
2022/09/05 03:58:39;;;;;;;;;;;20.50;77.50;;;;;;6104592;23;19940;-80
2022/09/05 04:01:23;;;;;;;;;;;20.60;76.70;;;;;;6103704;23;19917;-80
2022/09/05 04:04:48;;;;;;;;;;;20.60;76.80;;;;;;6104779;23;19923;-80
2022/09/05 04:07:41;;;;;;;;;;;20.60;76.90;;;;;;5989272;23;19922;-79
2022/09/05 04:10:30;;;;;;;;;;;20.70;77.50;;;;;;5988747;23;19938;-79
2022/09/05 04:13:16;;;;;;;;;;;20.70;78.70;;;;;;6079984;23;19940;-79
2022/09/05 04:15:49;;;;;;;;;;;20.70;78.70;;;;;;6100582;23;20012;-79
2022/09/05 04:18:23;;;;;;;;;;;20.70;78.10;;;;;;6100705;23;19921;-80
2022/09/05 04:21:02;;;;;;;;;;;20.80;77.00;;;;;;6102668;23;20373;-80
2022/09/05 04:23:45;;;;;;;;;;;20.90;75.10;;;;;;6099725;23;19917;-80
2022/09/05 04:26:12;;;;;;;;;;;20.90;74.20;;;;;;6100368;23;19917;-80
2022/09/05 04:29:14;;;;;;;;;;;20.90;74.60;;;;;;6099555;23;19917;-78
2022/09/05 04:31:47;;;;;;;;;;;20.90;75.20;;;;;;6012632;23;19926;-79
2022/09/05 04:34:32;;;;;;;;;;;20.90;75.80;;;;;;6117515;23;19991;-79
2022/09/05 04:37:06;;;;;;;;;;;20.90;76.10;;;;;;6100546;23;19916;-79
2022/09/05 04:39:34;;;;;;;;;;;20.80;75.80;;;;;;6099552;23;20227;-79
2022/09/05 04:42:11;;;;;;;;;;;20.90;75.50;;;;;;6100767;23;19921;-80
2022/09/05 04:45:01;;;;;;;;;;;20.80;76.10;;;;;;6100054;23;19971;-79
2022/09/05 04:47:28;;;;;;;;;;;20.70;76.20;;;;;;6099828;23;19924;-79
2022/09/05 04:50:04;;;;;;;;;;;20.70;76.20;;;;;;6100187;23;20349;-79
2022/09/05 04:52:34;;;;;;;;;;;20.70;75.90;;;;;;6099913;23;19920;-79
2022/09/05 04:55:03;;;;;;;;;;;20.70;75.70;;;;;;6100125;23;20330;-79
2022/09/05 04:57:36;;;;;;;;;;;20.70;75.70;;;;;;6099687;23;19917;-80
2022/09/05 05:00:05;;;;;;;;;;;20.70;76.00;;;;;;6100612;23;19921;-79
2022/09/05 05:02:57;;;;;;;;;;;20.70;76.30;;;;;;6103973;23;19987;-80
2022/09/05 05:05:51;;;;;;;;;;;20.70;77.00;;;;;;6125023;23;19987;-79
2022/09/05 05:08:41;;;;;;;;;;;20.60;77.00;;;;;;6103909;23;19923;-80
2022/09/05 05:11:20;;;;;;;;;;;20.60;77.30;;;;;;6100112;23;20330;-79
2022/09/05 05:14:10;;;;;;;;;;;20.60;78.10;;;;;;6104028;23;20024;-79
2022/09/05 05:17:09;;;;;;;;;;;20.60;78.80;;;;;;6103512;23;21811;-81
2022/09/05 05:20:01;;;;;;;;;;;20.50;78.90;;;;;;6103658;23;20340;-79
2022/09/05 05:22:59;;;;;;;;;;;20.50;78.20;;;;;;6103360;23;19984;-79
2022/09/05 05:25:40;;;;;;;;;;;20.50;77.20;;;;;;6102094;23;19921;-79
2022/09/05 05:28:12;;;;;;;;;;;20.50;76.60;;;;;;6099453;23;20253;-80
2022/09/05 05:30:50;;;;;;;;;;;20.50;76.50;;;;;;6102989;23;19917;-80
2022/09/05 05:33:28;;;;;;;;;;;20.50;76.90;;;;;;6102328;23;19924;-80
2022/09/05 05:35:58;;;;;;;;;;;20.50;77.20;;;;;;6099263;23;19920;-79
2022/09/05 05:38:25;;;;;;;;;;;20.50;77.90;;;;;;6099810;23;19916;-80
2022/09/05 05:40:55;;;;;;;;;;;20.50;79.80;;;;;;6099177;23;19923;-81
2022/09/05 05:43:25;;;;;;;;;;;20.50;80.50;;;;;;6100329;23;19988;-80
2022/09/05 05:45:57;;;;;;;;;;;20.50;81.20;;;;;;6099041;23;19924;-79
2022/09/05 05:48:28;;;;;;;;;;;20.50;80.90;;;;;;6099686;23;19944;-79
2022/09/05 05:51:13;;;;;;;;;;;20.50;79.80;;;;;;6098831;23;20334;-80
2022/09/05 05:53:52;;;;;;;;;;;20.50;79.70;;;;;;6099858;23;19917;-80
2022/09/05 05:56:22;;;;;;;;;;;20.50;79.10;;;;;;6099604;23;19917;-78
2022/09/05 05:59:07;;;;;;;;;;;20.50;79.10;;;;;;6099693;23;19917;-79
2022/09/05 06:01:53;;;;;;;;;;;20.60;78.80;;;;;;6124768;23;19921;-79
2022/09/05 06:04:58;;;;;;;;;;;20.60;78.60;;;;;;6099108;23;19917;-78
2022/09/05 06:07:29;;;;;;;;;;;20.60;78.60;;;;;;6012668;23;19929;-79
2022/09/05 06:10:35;;;;;;;;;;;20.70;78.90;;;;;;6015635;23;19925;-79
2022/09/05 06:13:39;;;;;;;;;;;20.70;79.30;;;;;;6094972;23;20696;-79
2022/09/05 06:16:28;;;;;;;;;;;20.70;78.90;;;;;;6102821;23;19964;-79
2022/09/05 06:19:10;;;;;;;;;;;20.70;78.90;;;;;;6099649;23;19921;-78
2022/09/05 06:21:37;;;;;;;;;;;20.70;78.80;;;;;;6099044;23;20330;-79
2022/09/05 06:24:26;;;;;;;;;;;20.80;78.80;;;;;;6103128;23;19917;-80
2022/09/05 06:27:05;;;;;;;;;;;20.80;78.50;;;;;;6099688;23;19924;-79
2022/09/05 06:29:54;;;;;;;;;;;20.80;78.20;;;;;;6098730;23;19979;-79
2022/09/05 06:32:39;;;;;;;;;;;20.80;77.40;;;;;;6098954;23;19952;-80
2022/09/05 06:35:25;;;;;;;;;;;20.90;78.00;;;;;;6102334;23;19944;-80
2022/09/05 06:38:10;;;;;;;;;;;20.90;78.10;;;;;;6099265;23;20262;-79
2022/09/05 06:40:57;;;;;;;;;;;20.90;78.40;;;;;;6098660;23;19955;-79
2022/09/05 06:43:33;;;;;;;;;;;21.00;77.10;;;;;;6110714;23;19917;-79
2022/09/05 06:46:07;;;;;;;;;;;21.00;76.60;;;;;;6098911;23;20432;-79
2022/09/05 06:48:37;;;;;;;;;;;21.10;76.20;;;;;;6099377;23;19951;-78
2022/09/05 06:51:43;;;;;;;;;;;21.20;76.00;;;;;;6103364;23;19955;-79
2022/09/05 06:54:29;;;;;;;;;;;21.40;75.60;;;;;;6099213;23;19917;-79
2022/09/05 06:56:59;;;;;;;;;;;21.50;74.90;;;;;;6098218;23;19917;-79
2022/09/05 06:59:44;;;;;;;;;;;21.50;74.70;;;;;;6099384;23;19999;-80
2022/09/05 07:02:14;;;;;;;;;;;21.60;75.00;;;;;;6099062;23;19921;-81
2022/09/05 07:04:43;;;;;;;;;;;21.60;75.20;;;;;;6099439;23;19924;-79
2022/09/05 07:07:50;;;;;;;;;;;21.70;74.90;;;;;;6102994;23;19956;-78
2022/09/05 07:10:27;;;;;;;;;;;21.80;73.60;;;;;;6098078;23;19972;-79
2022/09/05 07:13:12;;;;;;;;;;;21.80;71.90;;;;;;6124487;23;19916;-80
2022/09/05 07:15:44;;;;;;;;;;;21.90;72.00;;;;;;6097745;23;19967;-80
2022/09/05 07:18:30;;;;;;;;;;;22.00;71.80;;;;;;6098852;23;19921;-80
2022/09/05 07:21:00;;;;;;;;;;;22.10;72.60;;;;;;6124250;23;20447;-79
2022/09/05 07:23:50;;;;;;;;;;;22.20;71.40;;;;;;6102091;23;20227;-79
2022/09/05 07:26:39;;;;;;;;;;;22.30;71.50;;;;;;6102668;23;20305;-80
2022/09/05 07:29:43;;;;;;;;;;;22.30;70.40;;;;;;6102688;23;19921;-79
2022/09/05 07:32:27;;;;;;;;;;;22.40;70.50;;;;;;6102123;23;19927;-79
2022/09/05 07:34:56;;;;;;;;;;;22.50;69.70;;;;;;6099367;23;20250;-79
2022/09/05 07:37:24;;;;;;;;;;;22.50;69.90;;;;;;6098016;23;19917;-80
2022/09/05 07:39:57;;;;;;;;;;;22.50;69.40;;;;;;6099222;23;19921;-79
2022/09/05 07:42:35;;;;;;;;;;;22.60;68.90;;;;;;6100351;23;19916;-81
2022/09/05 07:45:07;;;;;;;;;;;22.60;68.60;;;;;;6099311;23;19921;-80
2022/09/05 07:47:35;;;;;;;;;;;22.70;68.00;;;;;;6098681;23;20746;-79
2022/09/05 07:50:04;;;;;;;;;;;22.80;67.90;;;;;;6099118;23;19924;-79
2022/09/05 07:52:54;;;;;;;;;;;22.90;67.60;;;;;;6093256;23;19992;-79
2022/09/05 07:55:41;;;;;;;;;;;23.10;66.60;;;;;;6093576;23;19921;-79
2022/09/05 07:58:40;;;;;;;;;;;23.30;66.20;;;;;;6093356;23;19937;-79
2022/09/05 08:01:11;;;;;;;;;;;23.50;65.90;;;;;;6093729;23;19941;-80
2022/09/05 08:03:39;;;;;;;;;;;23.70;66.10;;;;;;6093492;23;20381;-79
2022/09/05 08:06:08;;;;;;;;;;;23.90;66.30;;;;;;6094232;23;20251;-80
2022/09/05 08:08:53;;;;;;;0.25;0.25;;;24.00;66.00;;;;;;6069064;23;20227;-79
2022/09/05 08:11:41;;;;;;;0.20;0.20;;;24.10;66.50;;;;;;6091645;23;20714;-78
2022/09/05 08:14:29;;;;;;;0.20;0.20;;;24.20;66.00;;;;;;6092894;23;20378;-80
2022/09/05 08:17:19;;;;;;;0.20;0.20;;;24.30;67.20;;;;;;6093286;23;20031;-80
2022/09/05 08:20:00;;;;;;;0.10;0.10;;;24.40;66.60;;;;;;6092583;23;20482;-79
2022/09/05 08:23:02;;;;;;;0.25;0.25;;;24.50;66.00;;;;;;6095171;23;20022;-78
2022/09/05 08:25:37;;;;;;;0.20;0.20;;;24.70;65.80;;;;;;6092893;23;20834;-80
2022/09/05 08:28:47;;;;;;;0.20;0.20;;;24.90;63.40;;;;;;6091527;23;20377;-80
2022/09/05 08:31:23;;;;;;;0.20;0.20;;;25.30;61.90;;;;;;6082479;23;20029;-79
2022/09/05 08:33:55;;;;;;;;;;;25.50;57.60;;;;;;6095482;23;20033;-79
2022/09/05 08:36:39;;;;;;;0.95;0.20;;;25.60;58.60;;;;;;6094033;23;19973;-79
2022/09/05 08:39:09;;;;;;;0.10;0.10;;;25.70;58.00;;;;;;6092926;23;20389;-79
2022/09/05 08:42:13;;;;;;;0.10;0.10;;;25.80;58.60;;;;;;6093549;23;20857;-79
2022/09/05 08:45:19;;;;;;;0.30;0.20;;;25.90;59.00;;;;;;6092766;23;20850;-79
2022/09/05 08:48:18;;;;;;;0.20;0.20;;;26.10;61.20;;;;;;6093369;23;20386;-79
2022/09/05 08:51:15;;;;;;;0.20;0.20;;;26.20;60.20;;;;;;6092835;23;20393;-80
2022/09/05 08:54:00;;;;;;;0.30;0.30;;;26.20;60.40;;;;;;6093883;23;20386;-79
2022/09/05 08:56:27;;;;;;;0.30;0.20;;;26.30;60.00;;;;;;6092835;23;20377;-79
2022/09/05 08:58:54;;;;;;;0.30;0.30;;;26.50;60.50;;;;;;6093345;23;20488;-78
2022/09/05 09:02:17;;;;;;;0.60;0.20;;;26.50;59.70;;;;;;6091427;23;20464;-79
2022/09/05 09:05:32;;;;;;;0.20;0.20;;;26.70;59.00;;;;;;6092954;23;20420;-78
2022/09/05 09:08:34;;;;;;;0.20;0.20;;;26.70;58.30;;;;;;6092793;23;20453;-79
2022/09/05 09:11:13;;;;;;;1.60;0.28;;;26.60;58.50;;;;;;6092462;23;20727;-79
2022/09/05 09:14:11;;;;;;;0.10;0.10;;;26.70;57.60;;;;;;6093533;23;20746;-80
2022/09/05 09:17:34;;;;;;;0.20;0.20;;;26.90;58.90;;;;;;6094364;23;20389;-79
2022/09/05 09:20:46;;;;;;;0.30;0.30;;;26.90;57.80;;;;;;6094208;23;20405;-80
2022/09/05 09:23:46;;;;;;;0.20;0.20;;;26.80;56.70;;;;;;5982587;23;20375;-79
2022/09/05 09:26:19;;;;;;;0.30;0.20;;;26.90;56.20;;;;;;5982465;23;20427;-79
2022/09/05 09:29:09;;;;;;;0.28;0.28;;;26.90;57.80;;;;;;6071405;23;20466;-80
2022/09/05 09:31:45;;;;;;;0.20;0.20;;;27.10;56.90;;;;;;6070847;23;20429;-81
2022/09/05 09:34:24;;;;;;;0.40;0.20;;;27.10;56.20;;;;;;6092338;23;20381;-79
2022/09/05 09:36:59;;;;;;;0.30;0.20;;;26.90;56.20;;;;;;6092481;23;20373;-80
2022/09/05 09:39:35;;;;;;;0.70;0.30;;;27.00;56.30;;;;;;6091982;23;20436;-80
2022/09/05 09:42:11;;;;;;;0.25;0.25;;;27.30;57.10;;;;;;6092410;23;20381;-80
2022/09/05 09:44:58;;;;;;;;;;;27.60;57.40;;;;;;6093981;23;20463;-80
2022/09/05 09:47:32;;;;;;;;;;;27.70;56.30;;;;;;6094747;23;19925;-79
2022/09/05 09:50:17;;;;;;;;;;;27.60;57.00;;;;;;6095717;23;20299;-79
2022/09/05 09:52:44;;;;;;;;;;;27.60;56.70;;;;;;6094701;23;19976;-79
2022/09/05 09:55:22;;;;;;;;;;;27.70;56.70;;;;;;6094067;23;19925;-81
2022/09/05 09:58:13;;;;;;;;;;;27.80;56.20;;;;;;6093802;23;19917;-79
2022/09/05 10:00:59;;;;;;;;;;;27.80;56.50;;;;;;6094627;23;19966;-79
2022/09/05 10:03:33;;;;;;;;;;;28.00;55.30;;;;;;6095634;23;19921;-80
2022/09/05 10:06:51;;;;;;;1.05;0.20;;;28.20;54.70;;;;;;6093440;23;19945;-81
2022/09/05 10:09:53;;;;;;;0.20;0.20;;;28.30;52.60;;;;;;6093770;23;20367;-81
2022/09/05 10:12:45;;;;;;;0.20;0.20;;;28.40;53.10;;;;;;6093807;23;20077;-79
2022/09/05 10:15:25;;;;;;;;;;;28.50;53.90;;;;;;6094854;23;20030;-80
2022/09/05 10:18:24;;;;;;;;;;;28.60;53.30;;;;;;6095574;23;20254;-79
2022/09/05 10:20:57;;;;;;;;;;;28.60;52.70;;;;;;6082131;23;20409;-81
2022/09/05 10:24:01;;;;;;;;;;;28.50;53.70;;;;;;6093932;23;19917;-79
2022/09/05 10:26:46;;;;;;;;;;;28.20;54.30;;;;;;6094549;23;19925;-80
2022/09/05 10:30:00;;;;;;;0.30;0.30;;;28.10;54.50;;;;;;6093889;23;19917;-80
2022/09/05 10:32:52;;;;;;;0.20;0.20;;;27.50;54.40;;;;;;6033048;23;20053;-80
2022/09/05 10:35:42;;;;;;;0.30;0.30;;;27.30;55.00;;;;;;6060676;23;20371;-80
2022/09/05 10:38:16;;;;;;;0.43;0.22;;;27.20;54.80;;;;;;6093781;23;20451;-80
2022/09/05 10:40:47;;;;;;;0.52;0.20;;;27.20;55.30;;;;;;6093505;23;20027;-80
2022/09/05 10:43:49;;;;;;;0.25;0.20;;;27.10;55.30;;;;;;6093504;23;20046;-80
2022/09/05 10:46:50;;;;;;;0.20;0.20;;;27.10;55.80;;;;;;6095473;23;20135;-80
2022/09/05 10:49:26;;;;;;;0.30;0.10;;;27.10;56.80;;;;;;6093730;23;20408;-80
2022/09/05 10:52:58;;;;;;;0.20;0.20;;;27.10;56.60;;;;;;6091657;23;20928;-79
2022/09/05 10:55:59;;;;;;;0.20;0.20;;;27.10;56.30;;;;;;6082504;23;20447;-80
2022/09/05 10:58:32;;;;;;;0.32;0.30;;;27.10;56.50;;;;;;6047655;23;20034;-81
2022/09/05 11:01:41;;;;;;;0.20;0.20;;;27.10;55.50;;;;;;6092660;23;20058;-80
2022/09/05 11:04:48;;;;;;;0.20;0.20;;;27.00;56.50;;;;;;6093524;23;20075;-79
2022/09/05 11:07:29;;;;;;;0.30;0.30;;;27.00;55.60;;;;;;6093416;23;20026;-79
2022/09/05 11:10:23;;;;;;;0.20;0.20;;;27.00;56.30;;;;;;6093961;23;20037;-79
2022/09/05 11:13:07;;;;;;;0.28;0.28;;;27.00;56.80;;;;;;6093504;23;20026;-81
2022/09/05 11:16:00;;;;;;;0.30;0.30;;;27.00;56.70;;;;;;6093435;23;20023;-81
2022/09/05 11:18:56;;;;;;;0.20;0.20;;;27.10;57.20;;;;;;6093165;23;20399;-80
2022/09/05 11:21:57;;;;;;;0.20;0.20;;;27.30;55.70;;;;;;6092284;23;20086;-81
2022/09/05 11:25:01;;;;;;;0.30;0.30;;;27.40;56.10;;;;;;6093459;23;20041;-79
2022/09/05 11:27:43;;;;;;;0.20;0.20;;;27.40;55.10;;;;;;6092837;23;20023;-80
2022/09/05 11:30:16;;;;;;;0.28;0.28;;;27.40;55.30;;;;;;6093398;23;20026;-80
2022/09/05 11:33:45;;;;;;;0.20;0.20;;;27.30;55.50;;;;;;6094398;23;20411;-80
2022/09/05 11:36:55;;;;;;;0.20;0.20;;;27.30;55.40;;;;;;6093009;23;20018;-81
2022/09/05 11:40:03;;;;;;;0.20;0.20;;;27.30;54.90;;;;;;6093000;23;20566;-80
2022/09/05 11:43:28;;;;;;;1.02;0.20;;;27.40;55.80;;;;;;6092802;23;20026;-79
2022/09/05 11:46:18;;;;;;;1.45;0.30;;;27.30;56.90;;;;;;6093210;23;20030;-79
2022/09/05 11:49:23;;;;;;;0.20;0.20;;;27.20;57.80;;;;;;6093101;23;20332;-79
2022/09/05 11:52:21;;;;;;;0.25;0.25;;;27.10;58.50;;;;;;6092655;23;20026;-79
2022/09/05 11:55:22;;;;;;;0.30;0.30;;;27.10;58.60;;;;;;6092801;23;20452;-80
2022/09/05 11:58:02;;;;;;;0.40;0.20;;;27.10;59.30;;;;;;6094193;23;20403;-79
2022/09/05 12:01:02;;;;;;;0.20;0.20;;;27.10;59.80;;;;;;6093164;23;20030;-80
2022/09/05 12:04:18;;;;;;;0.30;0.30;;;27.10;60.20;;;;;;6093235;23;20054;-80
2022/09/05 12:07:06;;;;;;;0.20;0.20;;;27.20;60.20;;;;;;6094651;23;20098;-79
2022/09/05 12:10:28;;;;;;;0.20;0.20;;;27.20;58.50;;;;;;6094845;23;20045;-79
2022/09/05 12:13:31;;;;;;;0.43;0.25;;;27.20;58.80;;;;;;6060519;23;20053;-79
2022/09/05 12:16:00;;;;;;;0.70;0.30;;;27.10;58.30;;;;;;6094695;23;20054;-81
2022/09/05 12:18:41;;;;;;;0.30;0.30;;;27.20;57.90;;;;;;6095446;23;20523;-79
2022/09/05 12:21:26;;;;;;;0.20;0.20;;;27.40;57.40;;;;;;6093855;23;20093;-79
2022/09/05 12:24:06;;;;;;;0.20;0.20;;;27.80;57.30;;;;;;6095432;23;20027;-80
2022/09/05 12:27:14;;;;;;;0.30;0.30;;;28.20;55.90;;;;;;6094461;23;20053;-79
2022/09/05 12:30:08;;;;;;;0.13;0.13;;;28.80;54.60;;;;;;6093249;23;20850;-80
2022/09/05 12:32:55;;;;;;;0.27;0.20;;;29.20;52.70;;;;;;6094100;23;20897;-79
2022/09/05 12:35:48;;;;;;;0.20;0.20;;;28.70;52.30;;;;;;6093497;23;20369;-79
2022/09/05 12:38:39;;;;;;;0.20;0.20;;;28.40;54.00;;;;;;6094495;23;20378;-80
2022/09/05 12:41:36;;;;;;;0.20;0.20;;;28.60;52.70;;;;;;6093246;23;20393;-79
2022/09/05 12:44:31;;;;;;;0.20;0.20;;;28.70;52.80;;;;;;6093353;23;20369;-81
2022/09/05 12:47:12;;;;;;;0.10;0.10;;;28.90;52.00;;;;;;6093954;23;20369;-80
2022/09/05 12:50:08;;;;;;;0.20;0.20;;;29.00;52.10;;;;;;6094480;23;20480;-79
2022/09/05 12:52:45;;;;;;;0.40;0.20;;;28.90;51.20;;;;;;6092961;23;20386;-80
2022/09/05 12:55:32;;;;;;;0.22;0.20;;;28.80;51.70;;;;;;6093377;23;20385;-80
2022/09/05 12:58:01;;;;;;;0.20;0.20;;;28.80;52.10;;;;;;6092708;23;20377;-80
2022/09/05 13:00:49;;;;;;;0.20;0.20;;;28.80;52.50;;;;;;6092910;23;20417;-80
2022/09/05 13:03:51;;;;;;;0.15;0.10;;;28.80;51.80;;;;;;6092960;23;20378;-79
2022/09/05 13:06:45;;;;;;;0.20;0.10;;;28.80;51.50;;;;;;6093027;23;20412;-81
2022/09/05 13:09:15;;;;;;;0.30;0.30;;;28.90;53.60;;;;;;6092926;23;20373;-80
2022/09/05 13:12:10;;;;;;;0.40;0.20;;;29.00;52.50;;;;;;6092747;23;20392;-80
2022/09/05 13:15:15;;;;;;;0.15;0.15;;;29.40;53.40;;;;;;6092819;23;20850;-80
2022/09/05 13:18:16;;;;;;;0.10;0.10;;;30.00;50.70;;;;;;6092823;23;20783;-81
2022/09/05 13:20:57;;;;;;;0.20;0.10;;;30.40;49.70;;;;;;6092399;23;20393;-81
2022/09/05 13:23:47;;;;;;;0.30;0.20;;;30.50;48.10;;;;;;6093589;23;20378;-82
2022/09/05 13:26:31;;;;;;;0.45;0.20;;;30.30;48.80;;;;;;6094256;23;20082;-80
2022/09/05 13:29:03;;;;;;;1.38;0.17;;;29.70;49.10;;;;;;6093504;23;20023;-81
2022/09/05 13:31:39;;;;;;;0.10;0.10;;;29.60;50.10;;;;;;6095988;23;20022;-81
2022/09/05 13:34:35;;;;;;;0.20;0.20;;;29.60;51.30;;;;;;6095115;23;20022;-81
2022/09/05 13:37:28;;;;;;;0.20;0.20;;;29.60;50.60;;;;;;6093920;23;20026;-79
2022/09/05 13:40:22;;;;;;;0.68;0.30;;;29.80;50.10;;;;;;6093912;23;20032;-80
2022/09/05 13:43:09;;;;;;;0.52;0.20;;;30.10;50.10;;;;;;6093300;23;20038;-79
2022/09/05 13:46:09;;;;;;;0.28;0.20;;;29.90;49.10;;;;;;6093442;23;20101;-82
2022/09/05 13:48:36;;;;;;;0.30;0.30;;;29.70;49.20;;;;;;6093279;23;20033;-82
2022/09/05 13:51:36;;;;;;;0.20;0.20;;;30.00;48.50;;;;;;6100691;23;20376;-81
2022/09/05 13:54:05;;;;;;;0.15;0.10;;;30.20;48.10;;;;;;6099770;23;20026;-81
2022/09/05 13:56:38;;;;;;;0.52;0.17;;;30.20;49.20;;;;;;6097815;23;20030;-80
2022/09/05 13:59:10;;;;;;;0.10;0.10;;;30.40;47.70;;;;;;6099662;23;20065;-81
2022/09/05 14:01:56;;;;;;;0.20;0.20;;;30.60;48.10;;;;;;6098627;23;20022;-81
2022/09/05 14:04:49;;;;;;;0.10;0.10;;;30.70;46.90;;;;;;6102826;23;20014;-80
2022/09/05 14:07:54;;;;;;;0.20;0.20;;;30.80;47.10;;;;;;6102624;23;20042;-81
2022/09/05 14:11:01;;;;;;;0.73;0.20;;;30.70;46.90;;;;;;6099223;23;20447;-82
2022/09/05 14:14:09;;;;;;;0.10;0.10;;;30.50;47.60;;;;;;6098670;23;20026;-81
2022/09/05 14:16:44;;;;;;;0.30;0.15;;;30.00;48.00;;;;;;6098897;23;20351;-80
2022/09/05 14:22:12;;;;;;;0.15;0.15;;;29.80;49.40;;;;;;6124631;23;20140;-80
2022/09/05 14:24:48;;;;;;;0.13;0.10;;;30.00;48.30;;;;;;6100315;23;20024;-80
2022/09/05 14:27:25;;;;;;;0.20;0.20;;;30.10;48.90;;;;;;6100047;23;20022;-82
2022/09/05 14:30:00;;;;;;;1.05;0.20;;;30.20;48.90;;;;;;6100361;23;20022;-82
2022/09/05 14:33:19;;;;;;;0.20;0.20;;;30.30;49.40;;;;;;6102524;23;20101;-81
2022/09/05 14:36:25;;;;;;;0.20;0.20;;;30.50;48.90;;;;;;6103081;23;20541;-81
2022/09/05 14:39:31;;;;;;;0.10;0.10;;;30.50;48.80;;;;;;6102439;23;20025;-82
2022/09/05 14:42:19;;;;;;;0.22;0.20;;;30.50;48.00;;;;;;6098483;23;20022;-82
2022/09/05 14:45:05;;;;;;;0.30;0.20;;;30.20;49.40;;;;;;6098562;23;20030;-80
2022/09/05 14:48:13;;;;;;;0.20;0.10;;;30.10;49.10;;;;;;6098917;23;20028;-82
2022/09/05 14:51:15;;;;;;;0.20;0.20;;;29.80;49.90;;;;;;6118718;23;20029;-79
2022/09/05 14:53:58;;;;;;;0.22;0.20;;;29.50;50.90;;;;;;6123041;23;20041;-81
2022/09/05 14:56:35;;;;;;;0.55;0.20;;;29.20;51.20;;;;;;6123229;23;20029;-80
2022/09/05 14:59:38;;;;;;;0.20;0.20;;;29.00;52.60;;;;;;6122493;23;20022;-81
2022/09/05 15:02:30;;;;;;;0.20;0.20;;;28.80;52.50;;;;;;6122271;23;20030;-81
2022/09/05 15:05:20;;;;;;;0.20;0.20;;;28.70;53.20;;;;;;6122538;23;20030;-81
2022/09/05 15:07:49;;;;;;;0.30;0.20;;;28.70;53.20;;;;;;6123180;23;20025;-80
2022/09/05 15:10:20;;;;;;;;;;;28.70;53.40;;;;;;6123111;23;20101;-82
2022/09/05 15:13:10;;;;;;;;;;;28.60;52.80;;;;;;6123032;23;19964;-81
2022/09/05 15:15:39;;;;;;;;;;;28.50;53.70;;;;;;6123468;23;19920;-81
2022/09/05 15:18:23;;;;;;;;;;;28.50;53.70;;;;;;6122403;23;19916;-81
2022/09/05 15:20:52;;;;;;;;;;;28.50;53.60;;;;;;6122841;23;19924;-79
2022/09/05 15:23:18;;;;;;;;;;;28.50;53.40;;;;;;6122303;23;19921;-80